SBMT

Details ICAO SBMT
Name Campo de Marte Airport
Region Brazil
Timezone America/Sao_Paulo (UTC-3.0)
Plans Departing 287
Arriving 128
Stats Elevation 2,369 ft / 722 m (AMSL)
Location -23.509100° -46.637700°
Runways 1
Magnetic Variation 21.483° W
Sunrise 2019-03-23 09:12:29 UTC / 2019-03-23 06:12:29 Local
Sunset 2019-03-23 21:16:28 UTC / 2019-03-23 18:16:28 Local
Advertisement - Login to hide

Runways

ID Width Length Bearing (true/mag) Surface Threshold Overrun Markings Lighting
12 148 ft / 45 m 5,236 ft / 1,596 m 100.29° / 121.78° ASPHALT 978 ft / 298 m 0 ft / 0 m VISUAL EDGE THRESHOLD
30 148 ft / 45 m 5,236 ft / 1,596 m 280.29° / 301.77° ASPHALT 489 ft / 149 m 0 ft / 0 m VISUAL EDGE THRESHOLD

Map

Weather


0- 5 10 15 20 25 30 35+ Temperature / °C

Clouds and Precipitation
Forecast for 2019-03-23 18:00 UTC. Updated 38 minutes ago

Ground ~20,000 ft ~40,000 ft Winds

METAR

SBMT 231500Z 15002KT CAVOK 26/17 Q1019

TAF

Not found

Frequencies

Recorded 127.72 MHz Campo de Marte ATIS
Ground 121.60 MHz Campo de Marte Ground
Tower 133.35 MHz Campo de Marte Tower
Approach 121.50 MHz Sao Paulo Approach
Approach 123.90 MHz Sao Paulo Approach
Approach 129.50 MHz Sao Paulo Approach
Unicom 122.80 MHz Campo de Marte Unicom
Warning: Do not use this data for real-world aviation or navigation. No guarantee of current accuracy is given.